Impacts TAF Board INFO
FOR SITUATIONAL AWARENESS. NOT TO BE USED FOR FLIGHT PLANNING PURPOSES.
IDs:

KCVG - Cincinnati Intl, KY, US

Issued at 1132 UTC 16 Dec 2017
Updated at 1248 UTC 16 Dec 2017
Potential Impact None Slight Moderate High
Time1152Z 16/13Z 16/14Z 16/15Z 16/16Z 16/17Z 16/18Z 16/19Z 16/20Z 16/21Z 16/22Z 16/23Z 17/00Z 17/01Z>>
Type OBS PRVL PRVL PRVL PRVL PRVL PRVL PRVL PRVL PRVL PRVL PRVL PRVL PRVL
VIS 10 >6 >6 >6 >6 >6 >6 >6 >6 >6 >6 >6 >6 >6
CIG -- -- -- -- -- -- -- -- -- -- -- -- -- --
Cover SCT SCT SKC SKC SKC SKC SKC SKC SKC SKC SKC SKC SKC SKC
FltCat VFR VFR VFR VFR VFR VFR VFR VFR VFR VFR VFR VFR VFR VFR
WX -- -- -- -- -- -- -- -- -- -- -- -- -- --
WDir 210 200 220 220 220 220 220 220 220 210 210 210 210 210
WSpd 8 11 12 12 12 12 12 12 12 8 8 8 8 8
WGst -- -- 19 19 19 19 19 19 19 -- -- -- -- --

Raw TAF
KCVG 161132Z 1612/1718 20011KT P6SM SCT100
  FM161400 22012G19KT P6SM SKC
  FM162100 21008KT P6SM SKC
  FM170900 19005KT P6SM OVC250
  FM171600 19006KT P6SM OVC150


Raw METAR
KCVG 161152Z 21008KT 10SM SCT100 00/M04 A3007 RMK AO2 SLP188 T00001039 10011 21011 55004
KCVG 161052Z 21009KT 10SM BKN100 01/M03 A3007 RMK AO2 SLP187 T00111033
KCVG 160952Z 20008KT 10SM FEW046 OVC100 01/M04 A3005 RMK AO2 SLP183 T00061039

METAR Board
Radar Display
Forecast Discussion

FOR SITUATIONAL AWARENESS. NOT TO BE USED FOR FLIGHT PLANNING PURPOSES.